sensor_id;sensor_type;location;lat;lon;timestamp;temperature;humidity
67273;DHT22;54190;49.770;9.250;2023-11-18T00:01:20;5.00;99.90
67273;DHT22;54190;49.770;9.250;2023-11-18T00:03:46;5.10;99.90
67273;DHT22;54190;49.770;9.250;2023-11-18T00:06:12;5.10;99.90
67273;DHT22;54190;49.770;9.250;2023-11-18T00:08:38;5.10;99.90
67273;DHT22;54190;49.770;9.250;2023-11-18T00:11:04;5.10;99.90
67273;DHT22;54190;49.770;9.250;2023-11-18T00:13:30;5.10;99.90
67273;DHT22;54190;49.770;9.250;2023-11-18T00:15:56;5.00;99.90
67273;DHT22;54190;49.770;9.250;2023-11-18T00:18:23;5.00;99.90
67273;DHT22;54190;49.770;9.250;2023-11-18T00:20:48;4.90;99.90
67273;DHT22;54190;49.770;9.250;2023-11-18T00:23:16;4.80;99.90
67273;DHT22;54190;49.770;9.250;2023-11-18T00:25:43;4.80;99.90
67273;DHT22;54190;49.770;9.250;2023-11-18T00:28:11;4.80;99.90
67273;DHT22;54190;49.770;9.250;2023-11-18T00:30:38;4.80;99.90
67273;DHT22;54190;49.770;9.250;2023-11-18T00:33:04;4.80;99.90
67273;DHT22;54190;49.770;9.250;2023-11-18T00:35:30;4.80;99.90
67273;DHT22;54190;49.770;9.250;2023-11-18T00:37:59;4.90;99.90
67273;DHT22;54190;49.770;9.250;2023-11-18T00:40:25;4.90;99.90
67273;DHT22;54190;49.770;9.250;2023-11-18T00:42:51;4.90;99.90
67273;DHT22;54190;49.770;9.250;2023-11-18T00:45:16;4.90;99.90
67273;DHT22;54190;49.770;9.250;2023-11-18T00:47:43;5.00;99.90
67273;DHT22;54190;49.770;9.250;2023-11-18T00:50:09;4.90;99.90
67273;DHT22;54190;49.770;9.250;2023-11-18T00:52:36;4.90;99.90
67273;DHT22;54190;49.770;9.250;2023-11-18T00:55:07;4.90;99.90
67273;DHT22;54190;49.770;9.250;2023-11-18T00:57:34;4.80;99.90
67273;DHT22;54190;49.770;9.250;2023-11-18T01:00:00;4.90;99.90
67273;DHT22;54190;49.770;9.250;2023-11-18T01:02:26;4.90;99.90
67273;DHT22;54190;49.770;9.250;2023-11-18T01:04:52;4.90;99.90
67273;DHT22;54190;49.770;9.250;2023-11-18T01:07:17;5.00;99.90
67273;DHT22;54190;49.770;9.250;2023-11-18T01:09:43;5.00;99.90
67273;DHT22;54190;49.770;9.250;2023-11-18T01:12:09;5.00;99.90
67273;DHT22;54190;49.770;9.250;2023-11-18T01:14:38;5.00;99.90
67273;DHT22;54190;49.770;9.250;2023-11-18T01:17:08;4.90;99.90
67273;DHT22;54190;49.770;9.250;2023-11-18T01:19:37;5.00;99.90
67273;DHT22;54190;49.770;9.250;2023-11-18T01:22:03;4.90;99.90
67273;DHT22;54190;49.770;9.250;2023-11-18T01:24:32;5.00;99.90
67273;DHT22;54190;49.770;9.250;2023-11-18T01:26:58;4.90;99.90
67273;DHT22;54190;49.770;9.250;2023-11-18T01:29:27;5.00;99.90
67273;DHT22;54190;49.770;9.250;2023-11-18T01:31:53;5.00;99.90
67273;DHT22;54190;49.770;9.250;2023-11-18T01:34:21;4.80;99.90
67273;DHT22;54190;49.770;9.250;2023-11-18T01:36:48;4.90;99.90
67273;DHT22;54190;49.770;9.250;2023-11-18T01:39:18;4.90;99.90
67273;DHT22;54190;49.770;9.250;2023-11-18T01:41:44;4.90;99.90
67273;DHT22;54190;49.770;9.250;2023-11-18T01:44:10;5.00;99.90
67273;DHT22;54190;49.770;9.250;2023-11-18T01:46:40;5.10;99.90
67273;DHT22;54190;49.770;9.250;2023-11-18T01:49:07;5.10;99.90
67273;DHT22;54190;49.770;9.250;2023-11-18T01:51:34;5.10;99.90
67273;DHT22;54190;49.770;9.250;2023-11-18T01:54:01;5.00;99.90
67273;DHT22;54190;49.770;9.250;2023-11-18T01:56:28;4.90;99.90
67273;DHT22;54190;49.770;9.250;2023-11-18T01:58:54;4.90;99.90
67273;DHT22;54190;49.770;9.250;2023-11-18T02:01:20;4.90;99.90
67273;DHT22;54190;49.770;9.250;2023-11-18T02:03:45;4.90;99.90
67273;DHT22;54190;49.770;9.250;2023-11-18T02:06:13;4.90;99.90
67273;DHT22;54190;49.770;9.250;2023-11-18T02:08:39;5.00;99.90
67273;DHT22;54190;49.770;9.250;2023-11-18T02:11:31;5.00;99.90
67273;DHT22;54190;49.770;9.250;2023-11-18T02:14:00;5.10;99.90
67273;DHT22;54190;49.770;9.250;2023-11-18T02:16:30;5.00;99.90
67273;DHT22;54190;49.770;9.250;2023-11-18T02:18:56;4.90;99.90
67273;DHT22;54190;49.770;9.250;2023-11-18T02:21:22;5.00;99.90
67273;DHT22;54190;49.770;9.250;2023-11-18T02:23:49;5.00;99.90
67273;DHT22;54190;49.770;9.250;2023-11-18T02:26:22;5.00;99.90
67273;DHT22;54190;49.770;9.250;2023-11-18T02:28:48;5.00;99.90
67273;DHT22;54190;49.770;9.250;2023-11-18T02:31:19;5.10;99.90
67273;DHT22;54190;49.770;9.250;2023-11-18T02:34:02;5.10;99.90
67273;DHT22;54190;49.770;9.250;2023-11-18T02:36:40;5.10;99.90
67273;DHT22;54190;49.770;9.250;2023-11-18T02:39:12;5.00;99.90
67273;DHT22;54190;49.770;9.250;2023-11-18T02:41:46;4.90;99.90
67273;DHT22;54190;49.770;9.250;2023-11-18T02:44:13;4.90;99.90
67273;DHT22;54190;49.770;9.250;2023-11-18T02:46:44;4.80;99.90
67273;DHT22;54190;49.770;9.250;2023-11-18T02:49:10;4.80;99.90
67273;DHT22;54190;49.770;9.250;2023-11-18T02:51:35;4.80;99.90
67273;DHT22;54190;49.770;9.250;2023-11-18T02:54:05;4.70;99.90
67273;DHT22;54190;49.770;9.250;2023-11-18T02:56:32;4.60;99.90
67273;DHT22;54190;49.770;9.250;2023-11-18T02:58:57;4.70;99.90
67273;DHT22;54190;49.770;9.250;2023-11-18T03:01:23;4.70;99.90
67273;DHT22;54190;49.770;9.250;2023-11-18T03:03:50;4.70;99.90
67273;DHT22;54190;49.770;9.250;2023-11-18T03:06:16;4.70;99.90
67273;DHT22;54190;49.770;9.250;2023-11-18T03:08:42;4.70;99.90
67273;DHT22;54190;49.770;9.250;2023-11-18T03:11:07;4.70;99.90
67273;DHT22;54190;49.770;9.250;2023-11-18T03:13:35;4.60;99.90
67273;DHT22;54190;49.770;9.250;2023-11-18T03:16:00;4.60;99.90
67273;DHT22;54190;49.770;9.250;2023-11-18T03:18:26;4.50;99.90
67273;DHT22;54190;49.770;9.250;2023-11-18T03:20:52;4.50;99.90
67273;DHT22;54190;49.770;9.250;2023-11-18T03:23:17;4.50;99.90
67273;DHT22;54190;49.770;9.250;2023-11-18T03:25:44;4.40;99.90
67273;DHT22;54190;49.770;9.250;2023-11-18T03:28:10;4.30;99.90
67273;DHT22;54190;49.770;9.250;2023-11-18T03:30:36;4.30;99.90
67273;DHT22;54190;49.770;9.250;2023-11-18T03:33:03;4.30;99.90
67273;DHT22;54190;49.770;9.250;2023-11-18T03:35:29;4.30;99.90
67273;DHT22;54190;49.770;9.250;2023-11-18T03:37:55;4.20;99.90
67273;DHT22;54190;49.770;9.250;2023-11-18T03:40:21;4.20;99.90
67273;DHT22;54190;49.770;9.250;2023-11-18T03:42:46;4.30;99.90
67273;DHT22;54190;49.770;9.250;2023-11-18T03:45:12;4.30;99.90
67273;DHT22;54190;49.770;9.250;2023-11-18T03:47:41;4.30;99.90
67273;DHT22;54190;49.770;9.250;2023-11-18T03:50:07;4.30;99.90
67273;DHT22;54190;49.770;9.250;2023-11-18T03:52:38;4.40;99.90
67273;DHT22;54190;49.770;9.250;2023-11-18T03:55:04;4.40;99.90
67273;DHT22;54190;49.770;9.250;2023-11-18T03:57:30;4.40;99.90
67273;DHT22;54190;49.770;9.250;2023-11-18T03:59:56;4.50;99.90
67273;DHT22;54190;49.770;9.250;2023-11-18T04:02:22;4.40;99.90
67273;DHT22;54190;49.770;9.250;2023-11-18T04:04:48;4.40;99.90
67273;DHT22;54190;49.770;9.250;2023-11-18T04:07:14;4.40;99.90
67273;DHT22;54190;49.770;9.250;2023-11-18T04:09:40;4.50;99.90
67273;DHT22;54190;49.770;9.250;2023-11-18T04:12:07;4.50;99.90
67273;DHT22;54190;49.770;9.250;2023-11-18T04:14:33;4.50;99.90
67273;DHT22;54190;49.770;9.250;2023-11-18T04:16:59;4.60;99.90
67273;DHT22;54190;49.770;9.250;2023-11-18T04:19:25;4.50;99.90
67273;DHT22;54190;49.770;9.250;2023-11-18T04:21:51;4.50;99.90
67273;DHT22;54190;49.770;9.250;2023-11-18T04:24:17;4.60;99.90
67273;DHT22;54190;49.770;9.250;2023-11-18T04:26:42;4.50;99.90
67273;DHT22;54190;49.770;9.250;2023-11-18T04:29:08;4.50;99.90
67273;DHT22;54190;49.770;9.250;2023-11-18T04:31:34;4.40;99.90
67273;DHT22;54190;49.770;9.250;2023-11-18T04:34:01;4.40;99.90
67273;DHT22;54190;49.770;9.250;2023-11-18T04:36:27;4.40;99.90
67273;DHT22;54190;49.770;9.250;2023-11-18T04:38:53;4.30;99.90
67273;DHT22;54190;49.770;9.250;2023-11-18T04:41:18;4.30;99.90
67273;DHT22;54190;49.770;9.250;2023-11-18T04:43:44;4.30;99.90
67273;DHT22;54190;49.770;9.250;2023-11-18T04:46:09;4.30;99.90
67273;DHT22;54190;49.770;9.250;2023-11-18T04:48:36;4.20;99.90
67273;DHT22;54190;49.770;9.250;2023-11-18T04:51:02;4.30;99.90
67273;DHT22;54190;49.770;9.250;2023-11-18T04:53:28;4.20;99.90
67273;DHT22;54190;49.770;9.250;2023-11-18T04:55:53;4.20;99.90
67273;DHT22;54190;49.770;9.250;2023-11-18T04:58:19;4.20;99.90
67273;DHT22;54190;49.770;9.250;2023-11-18T05:00:44;4.20;99.90
67273;DHT22;54190;49.770;9.250;2023-11-18T05:03:10;4.20;99.90
67273;DHT22;54190;49.770;9.250;2023-11-18T05:05:39;4.20;99.90
67273;DHT22;54190;49.770;9.250;2023-11-18T05:08:06;4.20;99.90
67273;DHT22;54190;49.770;9.250;2023-11-18T05:10:35;4.30;99.90
67273;DHT22;54190;49.770;9.250;2023-11-18T05:13:02;4.20;99.90
67273;DHT22;54190;49.770;9.250;2023-11-18T05:15:27;4.30;99.90
67273;DHT22;54190;49.770;9.250;2023-11-18T05:17:55;4.30;99.90
67273;DHT22;54190;49.770;9.250;2023-11-18T05:20:21;4.30;99.90
67273;DHT22;54190;49.770;9.250;2023-11-18T05:22:47;4.30;99.90
67273;DHT22;54190;49.770;9.250;2023-11-18T05:25:13;4.30;99.90
67273;DHT22;54190;49.770;9.250;2023-11-18T05:27:39;4.30;99.90
67273;DHT22;54190;49.770;9.250;2023-11-18T05:30:07;4.40;99.90
67273;DHT22;54190;49.770;9.250;2023-11-18T05:32:33;4.40;99.90
67273;DHT22;54190;49.770;9.250;2023-11-18T05:34:59;4.40;99.90
67273;DHT22;54190;49.770;9.250;2023-11-18T05:37:25;4.40;99.90
67273;DHT22;54190;49.770;9.250;2023-11-18T05:39:51;4.50;99.90
67273;DHT22;54190;49.770;9.250;2023-11-18T05:42:28;4.50;99.90
67273;DHT22;54190;49.770;9.250;2023-11-18T05:44:53;4.50;99.90
67273;DHT22;54190;49.770;9.250;2023-11-18T05:47:26;4.60;99.90
67273;DHT22;54190;49.770;9.250;2023-11-18T05:49:53;4.60;99.90
67273;DHT22;54190;49.770;9.250;2023-11-18T05:52:19;4.60;99.90
67273;DHT22;54190;49.770;9.250;2023-11-18T05:54:46;4.70;99.90
67273;DHT22;54190;49.770;9.250;2023-11-18T05:57:14;4.60;99.90
67273;DHT22;54190;49.770;9.250;2023-11-18T05:59:40;4.60;99.90
67273;DHT22;54190;49.770;9.250;2023-11-18T06:02:05;4.70;99.90
67273;DHT22;54190;49.770;9.250;2023-11-18T06:04:31;4.70;99.90
67273;DHT22;54190;49.770;9.250;2023-11-18T06:06:57;4.80;99.90
67273;DHT22;54190;49.770;9.250;2023-11-18T06:09:23;4.80;99.90
67273;DHT22;54190;49.770;9.250;2023-11-18T06:11:54;4.80;99.90
67273;DHT22;54190;49.770;9.250;2023-11-18T06:14:20;4.80;99.90
67273;DHT22;54190;49.770;9.250;2023-11-18T06:16:49;4.80;99.90
67273;DHT22;54190;49.770;9.250;2023-11-18T06:19:16;4.80;99.90
67273;DHT22;54190;49.770;9.250;2023-11-18T06:21:41;4.80;99.90
67273;DHT22;54190;49.770;9.250;2023-11-18T06:24:07;4.80;99.90
67273;DHT22;54190;49.770;9.250;2023-11-18T06:26:34;4.80;99.90
67273;DHT22;54190;49.770;9.250;2023-11-18T06:29:02;4.80;99.90
67273;DHT22;54190;49.770;9.250;2023-11-18T06:31:29;4.80;99.90
67273;DHT22;54190;49.770;9.250;2023-11-18T06:33:55;4.80;99.90
67273;DHT22;54190;49.770;9.250;2023-11-18T06:36:22;4.80;99.90
67273;DHT22;54190;49.770;9.250;2023-11-18T06:38:52;4.80;99.90
67273;DHT22;54190;49.770;9.250;2023-11-18T06:41:19;4.80;99.90
67273;DHT22;54190;49.770;9.250;2023-11-18T06:43:48;4.80;99.90
67273;DHT22;54190;49.770;9.250;2023-11-18T06:46:20;4.90;99.90
67273;DHT22;54190;49.770;9.250;2023-11-18T06:48:51;4.90;99.90
67273;DHT22;54190;49.770;9.250;2023-11-18T06:51:20;4.90;99.90
67273;DHT22;54190;49.770;9.250;2023-11-18T06:53:50;4.90;99.90
67273;DHT22;54190;49.770;9.250;2023-11-18T06:56:16;4.90;99.90
67273;DHT22;54190;49.770;9.250;2023-11-18T06:58:41;4.90;99.90
67273;DHT22;54190;49.770;9.250;2023-11-18T07:01:08;4.90;99.90
67273;DHT22;54190;49.770;9.250;2023-11-18T07:03:35;4.80;99.90
67273;DHT22;54190;49.770;9.250;2023-11-18T07:06:04;4.80;99.90
67273;DHT22;54190;49.770;9.250;2023-11-18T07:08:32;4.80;99.90
67273;DHT22;54190;49.770;9.250;2023-11-18T07:11:00;4.80;99.90
67273;DHT22;54190;49.770;9.250;2023-11-18T07:13:27;4.80;99.90
67273;DHT22;54190;49.770;9.250;2023-11-18T07:15:53;4.90;99.90
67273;DHT22;54190;49.770;9.250;2023-11-18T07:18:25;4.80;99.90
67273;DHT22;54190;49.770;9.250;2023-11-18T07:20:51;4.90;99.90
67273;DHT22;54190;49.770;9.250;2023-11-18T07:23:20;4.90;99.90
67273;DHT22;54190;49.770;9.250;2023-11-18T07:25:46;4.90;99.90
67273;DHT22;54190;49.770;9.250;2023-11-18T07:28:12;4.90;99.90
67273;DHT22;54190;49.770;9.250;2023-11-18T07:30:41;4.90;99.90
67273;DHT22;54190;49.770;9.250;2023-11-18T07:33:08;5.00;99.90
67273;DHT22;54190;49.770;9.250;2023-11-18T07:35:34;4.90;99.90
67273;DHT22;54190;49.770;9.250;2023-11-18T07:38:02;5.00;99.90
67273;DHT22;54190;49.770;9.250;2023-11-18T07:40:28;5.00;99.90
67273;DHT22;54190;49.770;9.250;2023-11-18T07:42:57;4.90;99.90
67273;DHT22;54190;49.770;9.250;2023-11-18T07:45:27;4.90;99.90
67273;DHT22;54190;49.770;9.250;2023-11-18T07:47:55;4.80;99.90
67273;DHT22;54190;49.770;9.250;2023-11-18T07:50:21;4.80;99.90
67273;DHT22;54190;49.770;9.250;2023-11-18T07:52:50;4.80;99.90
67273;DHT22;54190;49.770;9.250;2023-11-18T07:55:16;4.80;99.90
67273;DHT22;54190;49.770;9.250;2023-11-18T07:57:42;4.80;99.90
67273;DHT22;54190;49.770;9.250;2023-11-18T08:00:08;4.90;99.90
67273;DHT22;54190;49.770;9.250;2023-11-18T08:02:38;4.90;99.90
67273;DHT22;54190;49.770;9.250;2023-11-18T08:05:05;4.90;99.90
67273;DHT22;54190;49.770;9.250;2023-11-18T08:07:35;4.90;99.90
67273;DHT22;54190;49.770;9.250;2023-11-18T08:10:03;4.90;99.90
67273;DHT22;54190;49.770;9.250;2023-11-18T08:12:31;4.90;99.90
67273;DHT22;54190;49.770;9.250;2023-11-18T08:14:56;5.00;99.90
67273;DHT22;54190;49.770;9.250;2023-11-18T08:17:23;5.00;99.90
67273;DHT22;54190;49.770;9.250;2023-11-18T08:19:53;5.00;99.90
67273;DHT22;54190;49.770;9.250;2023-11-18T08:22:19;5.10;99.90
67273;DHT22;54190;49.770;9.250;2023-11-18T08:24:48;5.20;99.90
67273;DHT22;54190;49.770;9.250;2023-11-18T08:27:14;5.20;99.90
67273;DHT22;54190;49.770;9.250;2023-11-18T08:29:40;5.30;99.90
67273;DHT22;54190;49.770;9.250;2023-11-18T08:32:07;5.30;99.90
67273;DHT22;54190;49.770;9.250;2023-11-18T08:34:35;5.40;99.90
67273;DHT22;54190;49.770;9.250;2023-11-18T08:37:04;5.40;99.90
67273;DHT22;54190;49.770;9.250;2023-11-18T08:39:30;5.50;99.90
67273;DHT22;54190;49.770;9.250;2023-11-18T08:41:56;5.50;99.90
67273;DHT22;54190;49.770;9.250;2023-11-18T08:44:22;5.50;99.90
67273;DHT22;54190;49.770;9.250;2023-11-18T08:46:49;5.60;99.90
67273;DHT22;54190;49.770;9.250;2023-11-18T08:49:18;5.60;99.90
67273;DHT22;54190;49.770;9.250;2023-11-18T08:51:50;5.70;99.90
67273;DHT22;54190;49.770;9.250;2023-11-18T08:54:21;5.70;99.90
67273;DHT22;54190;49.770;9.250;2023-11-18T08:56:54;5.70;99.90
67273;DHT22;54190;49.770;9.250;2023-11-18T08:59:23;5.80;99.90
67273;DHT22;54190;49.770;9.250;2023-11-18T09:01:52;5.80;99.90
67273;DHT22;54190;49.770;9.250;2023-11-18T09:04:26;5.80;99.90
67273;DHT22;54190;49.770;9.250;2023-11-18T09:06:53;5.90;99.90
67273;DHT22;54190;49.770;9.250;2023-11-18T09:09:20;5.90;99.90
67273;DHT22;54190;49.770;9.250;2023-11-18T09:11:53;5.90;99.90
67273;DHT22;54190;49.770;9.250;2023-11-18T09:14:20;5.90;99.90
67273;DHT22;54190;49.770;9.250;2023-11-18T09:16:46;5.90;99.90
67273;DHT22;54190;49.770;9.250;2023-11-18T09:19:11;6.00;99.90
67273;DHT22;54190;49.770;9.250;2023-11-18T09:21:37;6.00;99.90
67273;DHT22;54190;49.770;9.250;2023-11-18T09:24:05;6.10;99.90
67273;DHT22;54190;49.770;9.250;2023-11-18T09:26:33;6.10;99.90
67273;DHT22;54190;49.770;9.250;2023-11-18T09:29:00;6.10;99.90
67273;DHT22;54190;49.770;9.250;2023-11-18T09:31:27;6.10;99.90
67273;DHT22;54190;49.770;9.250;2023-11-18T09:33:52;6.10;99.90
67273;DHT22;54190;49.770;9.250;2023-11-18T09:36:19;6.20;99.90
67273;DHT22;54190;49.770;9.250;2023-11-18T09:38:45;6.20;99.90
67273;DHT22;54190;49.770;9.250;2023-11-18T09:41:15;6.10;99.90
67273;DHT22;54190;49.770;9.250;2023-11-18T09:43:43;6.20;99.90
67273;DHT22;54190;49.770;9.250;2023-11-18T09:46:12;6.20;99.90
67273;DHT22;54190;49.770;9.250;2023-11-18T09:48:42;6.20;99.90
67273;DHT22;54190;49.770;9.250;2023-11-18T09:51:08;6.20;99.90
67273;DHT22;54190;49.770;9.250;2023-11-18T09:53:38;6.20;99.90
67273;DHT22;54190;49.770;9.250;2023-11-18T09:56:17;6.20;99.90
67273;DHT22;54190;49.770;9.250;2023-11-18T09:59:01;6.30;99.90
67273;DHT22;54190;49.770;9.250;2023-11-18T10:01:35;6.30;99.90
67273;DHT22;54190;49.770;9.250;2023-11-18T10:04:06;6.40;99.90
67273;DHT22;54190;49.770;9.250;2023-11-18T10:06:35;6.50;99.90
67273;DHT22;54190;49.770;9.250;2023-11-18T10:09:02;6.50;99.90
67273;DHT22;54190;49.770;9.250;2023-11-18T10:11:46;6.60;99.90
67273;DHT22;54190;49.770;9.250;2023-11-18T10:14:16;6.60;99.90
67273;DHT22;54190;49.770;9.250;2023-11-18T10:16:43;6.60;99.90
67273;DHT22;54190;49.770;9.250;2023-11-18T10:19:13;6.70;99.90
67273;DHT22;54190;49.770;9.250;2023-11-18T10:21:40;6.70;99.90
67273;DHT22;54190;49.770;9.250;2023-11-18T10:24:08;6.70;99.90
67273;DHT22;54190;49.770;9.250;2023-11-18T10:26:43;6.70;99.90
67273;DHT22;54190;49.770;9.250;2023-11-18T10:29:11;6.70;99.90
67273;DHT22;54190;49.770;9.250;2023-11-18T10:31:39;6.80;99.90
67273;DHT22;54190;49.770;9.250;2023-11-18T10:34:12;6.80;99.90
67273;DHT22;54190;49.770;9.250;2023-11-18T10:36:37;6.80;99.90
67273;DHT22;54190;49.770;9.250;2023-11-18T10:39:04;6.90;99.90
67273;DHT22;54190;49.770;9.250;2023-11-18T10:41:42;6.90;99.90
67273;DHT22;54190;49.770;9.250;2023-11-18T10:44:09;6.90;99.90
67273;DHT22;54190;49.770;9.250;2023-11-18T10:46:53;7.00;99.90
67273;DHT22;54190;49.770;9.250;2023-11-18T10:49:22;7.00;99.90
67273;DHT22;54190;49.770;9.250;2023-11-18T10:51:47;7.00;99.90
67273;DHT22;54190;49.770;9.250;2023-11-18T10:54:16;7.00;99.90
67273;DHT22;54190;49.770;9.250;2023-11-18T10:56:51;7.00;99.90
67273;DHT22;54190;49.770;9.250;2023-11-18T10:59:22;7.00;99.90
67273;DHT22;54190;49.770;9.250;2023-11-18T11:01:48;7.10;99.90
67273;DHT22;54190;49.770;9.250;2023-11-18T11:04:15;7.10;99.90
67273;DHT22;54190;49.770;9.250;2023-11-18T11:06:50;7.10;99.90
67273;DHT22;54190;49.770;9.250;2023-11-18T11:09:25;7.10;99.90
67273;DHT22;54190;49.770;9.250;2023-11-18T11:11:59;7.10;99.90
67273;DHT22;54190;49.770;9.250;2023-11-18T11:14:34;7.10;99.90
67273;DHT22;54190;49.770;9.250;2023-11-18T11:17:07;7.10;99.90
67273;DHT22;54190;49.770;9.250;2023-11-18T11:22:37;7.10;99.90
67273;DHT22;54190;49.770;9.250;2023-11-18T11:25:16;7.20;99.90
67273;DHT22;54190;49.770;9.250;2023-11-18T11:30:45;7.20;99.90
67273;DHT22;54190;49.770;9.250;2023-11-18T11:35:46;7.30;99.90
67273;DHT22;54190;49.770;9.250;2023-11-18T11:38:14;7.30;99.90
67273;DHT22;54190;49.770;9.250;2023-11-18T11:40:42;7.30;99.90
67273;DHT22;54190;49.770;9.250;2023-11-18T11:43:10;7.30;99.90
67273;DHT22;54190;49.770;9.250;2023-11-18T11:45:48;7.30;99.90
67273;DHT22;54190;49.770;9.250;2023-11-18T11:48:14;7.30;99.90
67273;DHT22;54190;49.770;9.250;2023-11-18T11:53:28;7.30;99.90
67273;DHT22;54190;49.770;9.250;2023-11-18T11:55:55;7.30;99.90
67273;DHT22;54190;49.770;9.250;2023-11-18T11:58:35;7.40;99.90
67273;DHT22;54190;49.770;9.250;2023-11-18T12:01:25;7.40;99.90
67273;DHT22;54190;49.770;9.250;2023-11-18T12:03:57;7.30;99.90
67273;DHT22;54190;49.770;9.250;2023-11-18T12:06:26;7.40;99.90
67273;DHT22;54190;49.770;9.250;2023-11-18T12:08:53;7.40;99.90
67273;DHT22;54190;49.770;9.250;2023-11-18T12:11:20;7.50;99.90
67273;DHT22;54190;49.770;9.250;2023-11-18T12:14:07;7.50;99.90
67273;DHT22;54190;49.770;9.250;2023-11-18T12:17:07;7.50;99.90
67273;DHT22;54190;49.770;9.250;2023-11-18T12:19:38;7.60;99.90
67273;DHT22;54190;49.770;9.250;2023-11-18T12:22:21;7.60;99.90
67273;DHT22;54190;49.770;9.250;2023-11-18T12:27:45;7.60;99.90
67273;DHT22;54190;49.770;9.250;2023-11-18T12:32:59;7.70;99.90
67273;DHT22;54190;49.770;9.250;2023-11-18T12:38:39;7.70;99.90
67273;DHT22;54190;49.770;9.250;2023-11-18T12:41:34;7.70;99.90
67273;DHT22;54190;49.770;9.250;2023-11-18T12:44:11;7.70;99.90
67273;DHT22;54190;49.770;9.250;2023-11-18T12:49:19;7.70;99.90
67273;DHT22;54190;49.770;9.250;2023-11-18T12:51:55;7.70;99.90
67273;DHT22;54190;49.770;9.250;2023-11-18T12:54:26;7.80;99.90
67273;DHT22;54190;49.770;9.250;2023-11-18T12:56:55;7.70;99.90
67273;DHT22;54190;49.770;9.250;2023-11-18T12:59:21;7.70;99.90
67273;DHT22;54190;49.770;9.250;2023-11-18T13:01:49;7.70;99.90
67273;DHT22;54190;49.770;9.250;2023-11-18T13:04:19;7.70;99.90
67273;DHT22;54190;49.770;9.250;2023-11-18T13:06:50;7.70;99.90
67273;DHT22;54190;49.770;9.250;2023-11-18T13:09:17;7.70;99.90
67273;DHT22;54190;49.770;9.250;2023-11-18T13:11:59;7.70;99.90
67273;DHT22;54190;49.770;9.250;2023-11-18T13:14:27;7.60;99.90
67273;DHT22;54190;49.770;9.250;2023-11-18T13:16:53;7.60;99.90
67273;DHT22;54190;49.770;9.250;2023-11-18T13:19:26;7.60;99.90
67273;DHT22;54190;49.770;9.250;2023-11-18T13:22:00;7.60;99.90
67273;DHT22;54190;49.770;9.250;2023-11-18T13:24:36;7.60;99.90
67273;DHT22;54190;49.770;9.250;2023-11-18T13:27:03;7.60;99.90
67273;DHT22;54190;49.770;9.250;2023-11-18T13:29:31;7.60;99.90
67273;DHT22;54190;49.770;9.250;2023-11-18T13:31:57;7.60;99.90
67273;DHT22;54190;49.770;9.250;2023-11-18T13:34:25;7.60;99.90
67273;DHT22;54190;49.770;9.250;2023-11-18T13:36:53;7.60;99.90
67273;DHT22;54190;49.770;9.250;2023-11-18T13:39:19;7.50;99.90
67273;DHT22;54190;49.770;9.250;2023-11-18T13:41:48;7.50;99.90
67273;DHT22;54190;49.770;9.250;2023-11-18T13:44:35;7.50;99.90
67273;DHT22;54190;49.770;9.250;2023-11-18T13:47:01;7.50;99.90
67273;DHT22;54190;49.770;9.250;2023-11-18T13:49:28;7.40;99.90
67273;DHT22;54190;49.770;9.250;2023-11-18T13:51:55;7.40;99.90
67273;DHT22;54190;49.770;9.250;2023-11-18T13:54:22;7.40;99.90
67273;DHT22;54190;49.770;9.250;2023-11-18T13:56:49;7.40;99.90
67273;DHT22;54190;49.770;9.250;2023-11-18T13:59:15;7.40;99.90
67273;DHT22;54190;49.770;9.250;2023-11-18T14:01:42;7.40;99.90
67273;DHT22;54190;49.770;9.250;2023-11-18T14:04:09;7.40;99.90
67273;DHT22;54190;49.770;9.250;2023-11-18T14:06:35;7.40;99.90
67273;DHT22;54190;49.770;9.250;2023-11-18T14:09:02;7.40;99.90
67273;DHT22;54190;49.770;9.250;2023-11-18T14:11:30;7.40;99.90
67273;DHT22;54190;49.770;9.250;2023-11-18T14:13:56;7.40;99.90
67273;DHT22;54190;49.770;9.250;2023-11-18T14:16:24;7.40;99.90
67273;DHT22;54190;49.770;9.250;2023-11-18T14:18:51;7.40;99.90
67273;DHT22;54190;49.770;9.250;2023-11-18T14:21:18;7.40;99.90
67273;DHT22;54190;49.770;9.250;2023-11-18T14:23:43;7.40;99.90
67273;DHT22;54190;49.770;9.250;2023-11-18T14:26:10;7.40;99.90
67273;DHT22;54190;49.770;9.250;2023-11-18T14:28:36;7.40;99.90
67273;DHT22;54190;49.770;9.250;2023-11-18T14:31:03;7.40;99.90
67273;DHT22;54190;49.770;9.250;2023-11-18T14:33:30;7.40;99.90
67273;DHT22;54190;49.770;9.250;2023-11-18T14:35:59;7.40;99.90
67273;DHT22;54190;49.770;9.250;2023-11-18T14:38:26;7.30;99.90
67273;DHT22;54190;49.770;9.250;2023-11-18T14:40:52;7.30;99.90
67273;DHT22;54190;49.770;9.250;2023-11-18T14:43:19;7.30;99.90
67273;DHT22;54190;49.770;9.250;2023-11-18T14:45:45;7.30;99.90
67273;DHT22;54190;49.770;9.250;2023-11-18T14:48:10;7.30;99.90
67273;DHT22;54190;49.770;9.250;2023-11-18T14:50:36;7.30;99.90
67273;DHT22;54190;49.770;9.250;2023-11-18T14:53:04;7.20;99.90
67273;DHT22;54190;49.770;9.250;2023-11-18T14:55:31;7.20;99.90
67273;DHT22;54190;49.770;9.250;2023-11-18T14:57:58;7.20;99.90
67273;DHT22;54190;49.770;9.250;2023-11-18T15:00:24;7.20;99.90
67273;DHT22;54190;49.770;9.250;2023-11-18T15:02:57;7.20;99.90
67273;DHT22;54190;49.770;9.250;2023-11-18T15:05:23;7.20;99.90
67273;DHT22;54190;49.770;9.250;2023-11-18T15:07:51;7.20;99.90
67273;DHT22;54190;49.770;9.250;2023-11-18T15:10:22;7.20;99.90
67273;DHT22;54190;49.770;9.250;2023-11-18T15:12:48;7.20;99.90
67273;DHT22;54190;49.770;9.250;2023-11-18T15:15:21;7.20;99.90
67273;DHT22;54190;49.770;9.250;2023-11-18T15:17:48;7.20;99.90
67273;DHT22;54190;49.770;9.250;2023-11-18T15:20:17;7.10;99.90
67273;DHT22;54190;49.770;9.250;2023-11-18T15:22:48;7.10;99.90
67273;DHT22;54190;49.770;9.250;2023-11-18T15:25:14;7.00;99.90
67273;DHT22;54190;49.770;9.250;2023-11-18T15:27:44;7.00;99.90
67273;DHT22;54190;49.770;9.250;2023-11-18T15:30:16;6.90;99.90
67273;DHT22;54190;49.770;9.250;2023-11-18T15:32:45;6.80;99.90
67273;DHT22;54190;49.770;9.250;2023-11-18T15:35:12;6.80;99.90
67273;DHT22;54190;49.770;9.250;2023-11-18T15:37:40;6.70;99.90
67273;DHT22;54190;49.770;9.250;2023-11-18T15:40:12;6.70;99.90
67273;DHT22;54190;49.770;9.250;2023-11-18T15:42:40;6.70;99.90
67273;DHT22;54190;49.770;9.250;2023-11-18T15:47:39;6.70;99.90
67273;DHT22;54190;49.770;9.250;2023-11-18T15:50:08;6.70;99.90
67273;DHT22;54190;49.770;9.250;2023-11-18T15:52:38;6.70;99.90
67273;DHT22;54190;49.770;9.250;2023-11-18T15:55:05;6.70;99.90
67273;DHT22;54190;49.770;9.250;2023-11-18T15:57:42;6.80;99.90
67273;DHT22;54190;49.770;9.250;2023-11-18T16:00:09;6.80;99.90
67273;DHT22;54190;49.770;9.250;2023-11-18T16:02:43;6.80;99.90
67273;DHT22;54190;49.770;9.250;2023-11-18T16:05:11;6.80;99.90
67273;DHT22;54190;49.770;9.250;2023-11-18T16:07:39;6.80;99.90
67273;DHT22;54190;49.770;9.250;2023-11-18T16:10:06;6.80;99.90
67273;DHT22;54190;49.770;9.250;2023-11-18T16:12:31;6.80;99.90
67273;DHT22;54190;49.770;9.250;2023-11-18T16:14:57;6.80;99.90
67273;DHT22;54190;49.770;9.250;2023-11-18T16:17:23;6.80;99.90